»·PEaware :: PIN016D YPPH-NZCH

PIN016D :: YPPH-NZCH

FLIGHT INFORMATION

Flight Status: Arrived
Operator: Unknown
More flights by this operator :: More flights under this callsign
Pilot: Stacy K. (11621)
Aircraft: AIRBUS A380-800
(A388)
More flights by this aircraft type
Origin: YPPH Perth Intl
Australia
Destination: NZCH Christchurch Intl
New Zealand
More flights between these airports :: More routes between these airports
Route: MEMUP2 MEMUP Y53 WENDY V279 ML Y260 ECKHO L508 EKODA/N0488F360 MOLGI MOLG2F
File this flight plan on PilotEdge
Remarks: PBN / A1B1C1D1L1O1S1S2 DOF / 180531 REG / N10145PN EET / YBBB0326 NZZO0441 NZZC0508 SEL / DEFK OPR / PIN RMK / TCAS SIMBRIEF
Altitude:
(Current/Filed)
35,000ft
Speed:
(Current/Filed)
488kts
Departed: 31-May-18 09:28 AM
Arrived: 31-May-18 03:13 PM
Distance/Time
Traveled:
2719nm/5:45
Distance/Time
To Go:
Arrived

Flight Plot

Page will automatically refresh every two minutes.

Flight plan parsing failed; only flown route is shown


Map Options




Map Legend


Flown Route
Filed Route
Departure Airport
Arrival Airport
Navaid (VOR, NDB)
Fix

Horizontal Profiles

Position Reports

Time Latitude Longitude Heading Altitude Ground
Speed
31-May-18 08:50 -31.940099 115.973655 153 85ft 0kts
31-May-18 08:51 -31.940099 115.973655 153 85ft 0kts
31-May-18 08:52 -31.940099 115.973655 153 85ft 0kts
31-May-18 08:53 -31.940099 115.973655 153 85ft 0kts
31-May-18 08:54 -31.940099 115.973655 153 85ft 0kts
31-May-18 08:55 -31.940099 115.973655 153 85ft 0kts
31-May-18 08:56 -31.940099 115.973655 153 85ft 0kts
31-May-18 08:57 -31.940099 115.973655 153 85ft 0kts
31-May-18 08:58 -31.940099 115.973655 153 85ft 0kts
31-May-18 08:59 -31.940099 115.973655 153 85ft 0kts
31-May-18 09:00 -31.940099 115.973655 153 85ft 0kts
31-May-18 09:01 -31.940099 115.973655 153 85ft 0kts
31-May-18 09:02 -31.940099 115.973655 153 85ft 0kts
31-May-18 09:03 -31.940099 115.973655 153 85ft 0kts
31-May-18 09:04 -31.940099 115.973655 153 85ft 0kts
31-May-18 09:05 -31.940099 115.973655 153 85ft 0kts
31-May-18 09:06 -31.940099 115.973655 153 85ft 0kts
31-May-18 09:07 -31.940099 115.973655 153 85ft 0kts
31-May-18 09:08 -31.940099 115.973655 153 85ft 0kts
31-May-18 09:09 -31.940099 115.973655 153 85ft 0kts
31-May-18 09:10 -31.940099 115.973655 153 85ft 0kts
31-May-18 09:11 -31.940099 115.973655 153 85ft 0kts
31-May-18 09:12 -31.940099 115.973655 153 85ft 0kts
31-May-18 09:13 -31.940099 115.973655 153 85ft 0kts
31-May-18 09:14 -31.940099 115.973655 153 85ft 0kts
31-May-18 09:15 -31.940099 115.973655 153 85ft 0kts
31-May-18 09:16 -31.940099 115.973655 153 85ft 0kts
31-May-18 09:17 -31.939991 115.973593 154 85ft 2kts
31-May-18 09:18 -31.939399 115.973310 165 85ft 2kts
31-May-18 09:19 -31.938968 115.973510 245 85ft 2kts
31-May-18 09:20 -31.938914 115.973716 255 85ft 0kts
31-May-18 09:21 -31.938914 115.973716 255 85ft 0kts
31-May-18 09:22 -31.938914 115.973716 255 85ft 0kts
31-May-18 09:23 -31.938218 115.973109 329 85ft 15kts
31-May-18 09:24 -31.933774 115.970046 324 85ft 14kts
31-May-18 09:25 -31.934328 115.967173 330 85ft 4kts
31-May-18 09:26 -31.931668 115.967682 14 85ft 17kts
31-May-18 09:27 -31.928391 115.967774 208 85ft 1kts
31-May-18 09:28 -31.942424 115.964450 193 93ft 154kts
31-May-18 09:29 -31.990973 115.950202 193 2825ft 195kts
31-May-18 09:30 -32.039158 115.983016 109 5271ft 255kts
31-May-18 09:31 -32.059781 116.070555 111 8071ft 291kts
31-May-18 09:32 -32.094490 116.159908 117 10722ft 320kts
31-May-18 09:33 -32.136831 116.264019 117 12397ft 376kts
31-May-18 09:34 -32.182559 116.377828 117 15070ft 390kts
31-May-18 09:35 -32.233069 116.492691 124 17585ft 399kts
31-May-18 09:36 -32.292383 116.605104 125 19887ft 409kts
31-May-18 09:37 -32.353880 116.720672 125 21879ft 422kts
31-May-18 09:38 -32.416728 116.839477 125 23786ft 434kts
31-May-18 09:39 -32.481326 116.963123 124 25584ft 447kts
31-May-18 09:40 -32.544293 117.092654 115 27289ft 463kts
31-May-18 09:41 -32.586912 117.238977 109 28845ft 477kts
31-May-18 09:42 -32.628401 117.390625 109 30254ft 489kts
31-May-18 09:43 -32.671006 117.546174 109 31442ft 503kts
31-May-18 09:44 -32.714248 117.705612 109 32527ft 515kts
31-May-18 09:45 -32.758435 117.869353 109 33443ft 526kts
31-May-18 09:46 -32.803373 118.036108 108 34304ft 535kts
31-May-18 09:47 -32.849875 118.206652 108 34965ft 546kts
31-May-18 09:48 -32.896129 118.380269 108 35684ft 551kts
31-May-18 09:49 -32.942587 118.554509 108 36489ft 553kts
31-May-18 09:50 -32.994130 118.726859 114 37109ft 554kts
31-May-18 09:51 -33.054931 118.894300 115 37118ft 549kts
31-May-18 09:52 -33.116270 119.061251 114 37118ft 550kts
31-May-18 09:53 -33.176611 119.229488 114 37117ft 550kts
31-May-18 09:54 -33.236706 119.396782 114 37117ft 550kts
31-May-18 09:55 -33.296941 119.564751 113 37116ft 549kts
31-May-18 09:56 -33.356352 119.733262 113 37116ft 550kts
31-May-18 09:57 -33.415779 119.901739 113 37115ft 549kts
31-May-18 09:58 -33.470016 120.054899 113 37115ft 549kts
31-May-18 09:59 -33.528743 120.222167 112 37114ft 548kts
31-May-18 10:00 -33.586990 120.391047 112 37114ft 548kts
31-May-18 10:01 -33.645326 120.560262 112 37113ft 548kts
31-May-18 10:02 -33.703686 120.729254 112 37114ft 548kts
31-May-18 10:03 -33.761345 120.898812 112 37114ft 548kts
31-May-18 10:04 -33.818262 121.067884 112 37113ft 547kts
31-May-18 10:05 -33.875646 121.237403 112 37113ft 546kts
31-May-18 10:06 -33.932901 121.406906 111 37113ft 545kts
31-May-18 10:07 -33.989032 121.576262 111 37112ft 544kts
31-May-18 10:08 -34.045443 121.745544 111 37112ft 544kts
31-May-18 10:09 -34.101695 121.914738 110 37113ft 544kts
31-May-18 10:10 -34.157103 122.084303 110 37113ft 543kts
31-May-18 10:11 -34.212353 122.254027 111 37113ft 543kts
31-May-18 10:12 -34.268073 122.423623 111 37113ft 543kts
31-May-18 10:13 -34.322769 122.593989 110 37114ft 543kts
31-May-18 10:14 -34.377124 122.764147 110 37115ft 543kts
31-May-18 10:15 -34.431922 122.934517 110 37115ft 542kts
31-May-18 10:16 -34.486277 123.104996 110 37116ft 542kts
31-May-18 10:17 -34.539852 123.275704 109 37117ft 542kts
31-May-18 10:18 -34.593314 123.446235 109 37118ft 542kts
31-May-18 10:19 -34.647182 123.617208 110 37119ft 542kts
31-May-18 10:20 -34.700606 123.788388 109 37120ft 541kts
31-May-18 10:21 -34.753160 123.959994 109 37122ft 541kts
31-May-18 10:22 -34.805665 124.131406 109 37123ft 541kts
31-May-18 10:23 -34.858640 124.302993 108 37124ft 541kts
31-May-18 10:24 -34.910419 124.475087 108 37126ft 541kts
31-May-18 10:25 -34.962127 124.647005 108 37127ft 540kts
31-May-18 10:26 -35.014105 124.818671 108 37129ft 540kts
31-May-18 10:27 -35.065169 124.990507 106 37130ft 539kts
31-May-18 10:28 -35.109026 125.165805 103 37133ft 538kts
31-May-18 10:29 -35.150909 125.341109 103 37134ft 538kts
31-May-18 10:30 -35.192927 125.516087 103 37137ft 537kts
31-May-18 10:31 -35.234284 125.691138 103 37142ft 536kts
31-May-18 10:32 -35.275116 125.867180 103 37144ft 536kts
31-May-18 10:33 -35.315995 126.042524 103 37146ft 536kts
31-May-18 10:34 -35.357163 126.217342 102 37148ft 534kts
31-May-18 10:35 -35.397381 126.392553 102 37150ft 534kts
31-May-18 10:36 -35.437169 126.568084 102 37152ft 534kts
31-May-18 10:37 -35.476792 126.743303 102 37154ft 533kts
31-May-18 10:38 -35.516368 126.918084 102 37152ft 532kts
31-May-18 10:39 -35.556172 127.093425 102 37154ft 532kts
31-May-18 10:40 -35.595412 127.268414 101 37156ft 530kts
31-May-18 10:41 -35.633473 127.443076 101 37158ft 530kts
31-May-18 10:42 -35.671690 127.618326 101 37160ft 529kts
31-May-18 10:43 -35.710073 127.792908 101 37163ft 530kts
31-May-18 10:44 -35.748028 127.967875 101 37164ft 529kts
31-May-18 10:45 -35.785162 128.143229 101 37171ft 529kts
31-May-18 10:46 -35.822200 128.318359 101 37235ft 528kts
31-May-18 10:47 -35.859256 128.492962 101 37237ft 527kts
31-May-18 10:48 -35.896558 128.668068 101 37240ft 527kts
31-May-18 10:49 -35.932957 128.843192 100 37242ft 526kts
31-May-18 10:50 -35.968615 129.018095 100 37245ft 525kts
31-May-18 10:51 -36.004013 129.192689 100 37247ft 524kts
31-May-18 10:52 -36.039890 129.367514 100 37250ft 524kts
31-May-18 10:53 -36.074911 129.542406 99 37252ft 523kts
31-May-18 10:54 -36.109486 129.716996 99 37255ft 523kts
31-May-18 10:55 -36.144181 129.891671 100 37257ft 523kts
31-May-18 10:56 -36.178988 130.065982 100 37260ft 523kts
31-May-18 10:57 -36.213023 130.240994 99 37262ft 522kts
31-May-18 10:58 -36.246431 130.416305 99 37265ft 522kts
31-May-18 10:59 -36.279655 130.591427 99 37268ft 522kts
31-May-18 11:00 -36.313092 130.766542 99 37270ft 522kts
31-May-18 11:01 -36.346753 130.941677 99 37273ft 522kts
31-May-18 11:02 -36.379471 131.117441 98 37276ft 522kts
31-May-18 11:03 -36.411558 131.292580 98 37278ft 521kts
31-May-18 11:04 -36.443424 131.467874 98 37281ft 520kts
31-May-18 11:05 -36.475305 131.643205 98 37283ft 519kts
31-May-18 11:06 -36.507323 131.818742 99 37286ft 521kts
31-May-18 11:07 -36.538923 131.993944 98 37288ft 519kts
31-May-18 11:08 -36.569816 132.169597 98 37292ft 519kts
31-May-18 11:09 -36.600104 132.345136 98 37294ft 520kts
31-May-18 11:10 -36.630504 132.521246 98 37297ft 520kts
31-May-18 11:11 -36.661095 132.697422 98 37300ft 519kts
31-May-18 11:12 -36.691490 132.873152 98 37303ft 520kts
31-May-18 11:13 -36.716099 133.020319 97 37306ft 519kts
31-May-18 11:14 -36.745158 133.196608 97 37309ft 519kts
31-May-18 11:15 -36.779084 133.402327 97 37313ft 519kts
31-May-18 11:16 -36.808333 133.578715 97 37316ft 520kts
31-May-18 11:17 -36.837561 133.755541 97 37333ft 519kts
31-May-18 11:18 -36.865555 133.932046 97 37381ft 519kts
31-May-18 11:19 -36.893534 134.109097 97 37384ft 517kts
31-May-18 11:20 -36.916447 134.255757 97 37386ft 517kts
31-May-18 11:21 -36.944023 134.432221 97 37388ft 517kts
31-May-18 11:22 -36.971826 134.608876 97 37390ft 518kts
31-May-18 11:23 -36.999147 134.785476 96 37392ft 517kts
31-May-18 11:24 -37.025640 134.962345 96 37394ft 516kts
31-May-18 11:25 -37.051952 135.139176 96 37396ft 516kts
31-May-18 11:26 -37.078026 135.315504 96 37398ft 516kts
31-May-18 11:27 -37.104250 135.492342 96 37400ft 515kts
31-May-18 11:28 -37.130521 135.668795 96 37403ft 515kts
31-May-18 11:29 -37.156055 135.845508 96 37405ft 515kts
31-May-18 11:30 -37.180847 136.022532 96 37407ft 515kts
31-May-18 11:31 -37.205748 136.199296 96 37409ft 514kts
31-May-18 11:32 -37.230116 136.376128 96 37410ft 514kts
31-May-18 11:33 -37.254330 136.552418 96 37412ft 514kts
31-May-18 11:34 -37.278675 136.729354 96 37414ft 514kts
31-May-18 11:35 -37.303091 136.905998 96 37416ft 513kts
31-May-18 11:36 -37.326917 137.082966 96 37418ft 513kts
31-May-18 11:37 -37.350033 137.259733 96 37429ft 512kts
31-May-18 11:38 -37.372875 137.436659 96 37431ft 512kts
31-May-18 11:39 -37.395224 137.613624 96 37432ft 512kts
31-May-18 11:40 -37.417389 137.790618 96 37434ft 512kts
31-May-18 11:41 -37.439521 137.967466 96 37436ft 512kts
31-May-18 11:42 -37.461613 138.144334 96 37438ft 512kts
31-May-18 11:43 -37.483669 138.321352 96 37440ft 512kts
31-May-18 11:44 -37.505083 138.498533 96 37442ft 511kts
31-May-18 11:45 -37.525684 138.675184 95 37450ft 511kts
31-May-18 11:46 -37.546206 138.853149 95 37456ft 511kts
31-May-18 11:47 -37.566361 139.030188 96 37460ft 511kts
31-May-18 11:48 -37.586333 139.207664 95 37461ft 511kts
31-May-18 11:49 -37.606018 139.385558 96 37462ft 511kts
31-May-18 11:50 -37.625486 139.563365 96 37463ft 511kts
31-May-18 11:51 -37.644667 139.741400 96 37464ft 511kts
31-May-18 11:52 -37.663769 139.919103 96 37465ft 512kts
31-May-18 11:53 -37.682984 140.097269 96 37465ft 511kts
31-May-18 11:54 -37.701954 140.274983 96 37466ft 512kts
31-May-18 11:55 -37.720144 140.453325 96 37466ft 511kts
31-May-18 11:56 -37.737984 140.631567 96 37466ft 511kts
31-May-18 11:57 -37.754070 140.809583 93 37467ft 510kts
31-May-18 11:58 -37.761751 140.988234 92 37466ft 509kts
31-May-18 11:59 -37.767811 141.167332 92 37467ft 510kts
31-May-18 12:00 -37.774333 141.346340 92 37467ft 509kts
31-May-18 12:01 -37.780777 141.525225 92 37468ft 509kts
31-May-18 12:02 -37.786761 141.703930 92 37469ft 509kts
31-May-18 12:03 -37.792310 141.882867 92 37470ft 509kts
31-May-18 12:04 -37.797453 142.061896 92 37471ft 509kts
31-May-18 12:05 -37.802331 142.240521 92 37473ft 509kts
31-May-18 12:06 -37.807151 142.419612 92 37475ft 509kts
31-May-18 12:07 -37.811825 142.598925 92 37477ft 510kts
31-May-18 12:08 -37.816372 142.777445 93 37478ft 509kts
31-May-18 12:09 -37.820701 142.956828 93 37480ft 509kts
31-May-18 12:10 -37.824880 143.136148 93 37481ft 509kts
31-May-18 12:11 -37.828744 143.314945 93 37491ft 509kts
31-May-18 12:12 -37.832324 143.494000 93 37493ft 509kts
31-May-18 12:13 -37.835395 143.672901 93 37494ft 509kts
31-May-18 12:14 -37.838120 143.851871 93 37495ft 509kts
31-May-18 12:15 -37.830758 144.030307 80 37497ft 513kts
31-May-18 12:16 -37.795574 144.205782 76 37496ft 514kts
31-May-18 12:17 -37.758367 144.378244 76 37496ft 515kts
31-May-18 12:18 -37.721806 144.551208 77 37496ft 515kts
31-May-18 12:19 -37.690262 144.700799 77 37496ft 515kts
31-May-18 12:20 -37.674348 144.873262 107 37499ft 502kts
31-May-18 12:21 -37.721801 145.028083 118 37497ft 495kts
31-May-18 12:22 -37.775584 145.179485 118 37495ft 494kts
31-May-18 12:23 -37.830817 145.338480 117 37494ft 494kts
31-May-18 12:24 -37.885273 145.497878 117 37493ft 493kts
31-May-18 12:25 -37.940733 145.655817 120 37491ft 490kts
31-May-18 12:26 -38.000302 145.811621 120 37489ft 489kts
31-May-18 12:27 -38.059855 145.966725 120 37485ft 489kts
31-May-18 12:28 -38.118497 146.122694 120 37481ft 490kts
31-May-18 12:29 -38.176764 146.278769 120 37479ft 489kts
31-May-18 12:30 -38.235131 146.435178 120 37482ft 488kts
31-May-18 12:31 -38.293235 146.590988 120 37480ft 487kts
31-May-18 12:32 -38.351433 146.746984 120 37479ft 487kts
31-May-18 12:33 -38.409305 146.902984 120 37453ft 485kts
31-May-18 12:34 -38.466229 147.058480 120 37432ft 484kts
31-May-18 12:35 -38.522956 147.214661 120 37434ft 483kts
31-May-18 12:36 -38.579310 147.370631 120 37440ft 483kts
31-May-18 12:37 -38.635288 147.526583 120 37435ft 482kts
31-May-18 12:38 -38.691040 147.682760 120 37433ft 482kts
31-May-18 12:39 -38.746465 147.838667 120 37434ft 482kts
31-May-18 12:40 -38.802213 147.995177 120 37434ft 482kts
31-May-18 12:41 -38.857686 148.151313 120 37430ft 479kts
31-May-18 12:42 -38.912799 148.307093 120 37430ft 479kts
31-May-18 12:43 -38.967237 148.463495 119 37430ft 479kts
31-May-18 12:44 -39.021202 148.619562 119 37430ft 478kts
31-May-18 12:45 -39.074885 148.775946 119 37430ft 478kts
31-May-18 12:46 -39.128525 148.932610 119 37430ft 477kts
31-May-18 12:47 -39.182193 149.088873 119 37415ft 477kts
31-May-18 12:48 -39.235886 149.245087 119 37414ft 476kts
31-May-18 12:49 -39.288654 149.401742 119 37414ft 476kts
31-May-18 12:50 -39.341112 149.558494 119 37415ft 475kts
31-May-18 12:51 -39.393311 149.715418 119 37415ft 475kts
31-May-18 12:52 -39.445337 149.871772 119 37415ft 474kts
31-May-18 12:53 -39.497873 150.028984 119 37412ft 473kts
31-May-18 12:54 -39.549461 150.185437 119 37412ft 474kts
31-May-18 12:55 -39.600621 150.342932 118 37412ft 474kts
31-May-18 12:56 -39.651546 150.500868 118 37412ft 475kts
31-May-18 12:57 -39.698623 150.661416 116 37410ft 476kts
31-May-18 12:58 -39.744181 150.823000 116 37409ft 476kts
31-May-18 12:59 -39.789475 150.984978 115 37409ft 477kts
31-May-18 13:00 -39.834989 151.146816 116 37408ft 476kts
31-May-18 13:01 -39.880564 151.308628 115 37411ft 476kts
31-May-18 13:02 -39.925173 151.471197 115 37410ft 477kts
31-May-18 13:03 -39.969329 151.633539 115 37409ft 476kts
31-May-18 13:04 -40.013709 151.796394 115 37409ft 476kts
31-May-18 13:05 -40.058126 151.958998 115 37410ft 476kts
31-May-18 13:06 -40.102383 152.121808 115 37409ft 476kts
31-May-18 13:07 -40.145858 152.285434 114 37409ft 477kts
31-May-18 13:08 -40.189192 152.449497 114 37408ft 477kts
31-May-18 13:09 -40.232938 152.613743 114 37404ft 478kts
31-May-18 13:10 -40.276109 152.778509 114 37403ft 479kts
31-May-18 13:11 -40.318953 152.943564 114 37406ft 480kts
31-May-18 13:12 -40.362230 153.109377 113 37406ft 481kts
31-May-18 13:13 -40.404754 153.276304 113 37411ft 482kts
31-May-18 13:14 -40.447407 153.443343 113 37411ft 483kts
31-May-18 13:15 -40.489994 153.610493 112 37412ft 483kts
31-May-18 13:16 -40.531741 153.777940 112 37412ft 483kts
31-May-18 13:17 -40.573621 153.946316 112 37420ft 484kts
31-May-18 13:18 -40.615605 154.114915 111 37411ft 486kts
31-May-18 13:19 -40.657313 154.284436 111 37409ft 486kts
31-May-18 13:20 -40.699312 154.454045 111 37407ft 487kts
31-May-18 13:21 -40.740550 154.624344 110 37407ft 488kts
31-May-18 13:22 -40.781787 154.794898 111 37406ft 489kts
31-May-18 13:23 -40.822898 154.966591 110 37405ft 490kts
31-May-18 13:24 -40.863730 155.138685 110 37404ft 491kts
31-May-18 13:25 -40.904385 155.310719 109 37403ft 492kts
31-May-18 13:26 -40.944799 155.484323 109 37402ft 494kts
31-May-18 13:27 -40.985450 155.657859 109 37401ft 494kts
31-May-18 13:28 -41.025217 155.831542 108 37399ft 494kts
31-May-18 13:29 -41.064943 156.005936 108 37398ft 494kts
31-May-18 13:30 -41.098189 156.151684 107 37397ft 497kts
31-May-18 13:31 -41.138227 156.327422 107 37396ft 496kts
31-May-18 13:32 -41.177322 156.503444 107 37395ft 496kts
31-May-18 13:33 -41.216091 156.679096 107 37394ft 497kts
31-May-18 13:34 -41.255264 156.855329 106 37392ft 497kts
31-May-18 13:35 -41.293594 157.032050 106 37391ft 497kts
31-May-18 13:36 -41.332019 157.208938 106 37390ft 497kts
31-May-18 13:37 -41.369939 157.385706 105 37389ft 497kts
31-May-18 13:38 -41.407513 157.563102 105 37387ft 498kts
31-May-18 13:39 -41.445441 157.740788 105 37386ft 498kts
31-May-18 13:40 -41.482367 157.918709 104 37385ft 498kts
31-May-18 13:41 -41.519430 158.097047 104 37384ft 498kts
31-May-18 13:42 -41.556188 158.274911 104 37382ft 498kts
31-May-18 13:43 -41.592208 158.453425 103 37381ft 497kts
31-May-18 13:44 -41.628297 158.632267 104 37379ft 498kts
31-May-18 13:45 -41.664663 158.810965 104 37378ft 498kts
31-May-18 13:46 -41.699908 158.989932 103 37377ft 497kts
31-May-18 13:47 -41.734868 159.169098 103 37376ft 497kts
31-May-18 13:48 -41.770235 159.348218 103 37374ft 497kts
31-May-18 13:49 -41.804660 159.527338 102 37373ft 497kts
31-May-18 13:50 -41.838761 159.706926 102 37372ft 497kts
31-May-18 13:51 -41.873099 159.886558 102 37371ft 497kts
31-May-18 13:52 -41.907282 160.066464 102 37370ft 497kts
31-May-18 13:53 -41.940375 160.246210 101 37369ft 497kts
31-May-18 13:54 -41.973261 160.426587 101 37369ft 498kts
31-May-18 13:55 -42.006211 160.607176 101 37367ft 497kts
31-May-18 13:56 -42.039307 160.788271 101 37367ft 498kts
31-May-18 13:57 -42.072213 160.968653 101 37392ft 498kts
31-May-18 13:58 -42.104302 161.150360 101 37395ft 498kts
31-May-18 13:59 -42.135834 161.331850 101 37404ft 497kts
31-May-18 14:00 -42.167160 161.513061 101 37406ft 498kts
31-May-18 14:01 -42.198292 161.694780 101 37406ft 497kts
31-May-18 14:02 -42.229434 161.876669 101 37405ft 497kts
31-May-18 14:03 -42.260559 162.057845 101 37404ft 497kts
31-May-18 14:04 -42.290891 162.240152 100 37404ft 497kts
31-May-18 14:05 -42.320642 162.422512 100 37403ft 497kts
31-May-18 14:06 -42.350307 162.605332 100 37403ft 497kts
31-May-18 14:07 -42.379734 162.787981 100 37402ft 497kts
31-May-18 14:08 -42.408765 162.970189 100 37401ft 497kts
31-May-18 14:09 -42.437790 163.153255 101 37401ft 497kts
31-May-18 14:10 -42.466564 163.336149 101 37400ft 497kts
31-May-18 14:11 -42.495303 163.519179 101 37400ft 497kts
31-May-18 14:12 -42.523602 163.702645 100 37399ft 497kts
31-May-18 14:13 -42.551143 163.886219 100 37399ft 496kts
31-May-18 14:14 -42.578373 164.070020 100 37398ft 496kts
31-May-18 14:15 -42.605226 164.253125 100 37398ft 496kts
31-May-18 14:16 -42.631817 164.437676 100 37397ft 496kts
31-May-18 14:17 -42.658247 164.621880 100 37397ft 497kts
31-May-18 14:18 -42.684690 164.806214 100 37397ft 497kts
31-May-18 14:19 -42.711121 164.990602 100 37396ft 497kts
31-May-18 14:20 -42.737102 165.175096 100 37396ft 497kts
31-May-18 14:21 -42.762387 165.360110 100 37395ft 497kts
31-May-18 14:22 -42.787166 165.545288 100 37395ft 497kts
31-May-18 14:23 -42.811627 165.730241 99 37395ft 497kts
31-May-18 14:24 -42.835959 165.915902 100 37395ft 497kts
31-May-18 14:25 -42.860130 166.101170 100 37394ft 497kts
31-May-18 14:26 -42.884004 166.287227 100 37394ft 497kts
31-May-18 14:27 -42.907759 166.472570 100 37394ft 498kts
31-May-18 14:28 -42.931551 166.658452 100 37394ft 498kts
31-May-18 14:29 -42.954905 166.844946 99 37394ft 497kts
31-May-18 14:30 -42.977476 167.031279 99 37394ft 497kts
31-May-18 14:31 -42.999651 167.217306 99 37394ft 497kts
31-May-18 14:32 -43.021487 167.404179 99 37394ft 497kts
31-May-18 14:33 -43.043016 167.590881 99 37394ft 497kts
31-May-18 14:34 -43.064345 167.777674 99 37394ft 497kts
31-May-18 14:35 -43.085716 167.964586 99 37383ft 497kts
31-May-18 14:36 -43.106932 168.150776 99 37379ft 496kts
31-May-18 14:37 -43.127871 168.337650 99 37380ft 496kts
31-May-18 14:38 -43.147859 168.524651 99 37382ft 496kts
31-May-18 14:39 -43.167417 168.711931 99 37383ft 496kts
31-May-18 14:40 -43.186702 168.899109 98 37384ft 496kts
31-May-18 14:41 -43.205946 169.086815 98 37385ft 496kts
31-May-18 14:42 -43.225126 169.273680 99 37387ft 496kts
31-May-18 14:43 -43.244465 169.461542 99 37388ft 496kts
31-May-18 14:44 -43.262798 169.648821 98 37389ft 496kts
31-May-18 14:45 -43.280434 169.836334 98 37391ft 495kts
31-May-18 14:46 -43.297948 170.022673 99 36095ft 480kts
31-May-18 14:47 -43.315182 170.201079 99 34298ft 462kts
31-May-18 14:48 -43.330797 170.372617 99 32501ft 446kts
31-May-18 14:49 -43.345476 170.539852 99 30698ft 433kts
31-May-18 14:50 -43.359540 170.701472 99 28900ft 420kts
31-May-18 14:51 -43.373399 170.858107 99 27102ft 406kts
31-May-18 14:52 -43.386286 171.010043 98 25303ft 394kts
31-May-18 14:53 -43.398797 171.157306 97 23503ft 382kts
31-May-18 14:54 -43.410650 171.300509 97 21700ft 370kts
31-May-18 14:55 -43.411238 171.439447 83 19903ft 361kts
31-May-18 14:56 -43.396878 171.573708 82 18107ft 350kts
31-May-18 14:57 -43.382920 171.704649 82 16305ft 341kts
31-May-18 14:58 -43.369362 171.832301 82 14503ft 333kts
31-May-18 14:59 -43.356055 171.956216 82 12691ft 320kts
31-May-18 15:00 -43.343757 172.069944 82 10863ft 284kts
31-May-18 15:01 -43.332169 172.174409 81 9059ft 272kts
31-May-18 15:02 -43.320933 172.275877 80 7261ft 265kts
31-May-18 15:03 -43.312037 172.345176 79 5992ft 258kts
31-May-18 15:04 -43.299878 172.438681 79 4238ft 237kts
31-May-18 15:05 -43.289337 172.520144 79 4012ft 208kts
31-May-18 15:06 -43.279076 172.598988 79 3999ft 209kts
31-May-18 15:07 -43.276726 172.677844 123 3466ft 212kts
31-May-18 15:08 -43.329114 172.681903 193 3019ft 189kts
31-May-18 15:09 -43.375020 172.661299 211 2747ft 173kts
31-May-18 15:10 -43.411837 172.621090 219 1789ft 167kts
31-May-18 15:11 -43.447128 172.580363 220 909ft 158kts
31-May-18 15:12 -43.477835 172.544916 220 141ft 110kts
31-May-18 15:13 -43.488290 172.534082 135 141ft 17kts
31-May-18 15:14 -43.486387 172.538398 39 141ft 18kts
31-May-18 15:15 -43.485795 172.541909 148 141ft 4kts
31-May-18 15:16 -43.486640 172.541410 220 141ft 1kts
31-May-18 15:17 -43.486640 172.541409 220 141ft 0kts
31-May-18 15:18 -43.486640 172.541409 220 141ft 0kts

Navigation Log

Ident Type
Flight plan parsing failed, navigation log unavailable